Time;durP1;ratioP1;P1;durP2;ratioP2;P2;SDS_P1;SDS_P2;PMS_P1;PMS_P2;Temp;Humidity;BMP_temperature;BMP_pressure;BME280_temperature;BME280_humidity;BME280_pressure;Samples;Min_cycle;Max_cycle;Signal;HPM_P1;HPM_P2
2023/07/13 00:00:48;;;;;;;3.17;0.95;;;;;23.70;101220.00;;;;5083337;28;20661;-78
2023/07/13 00:03:17;;;;;;;3.40;1.23;;;;;23.60;101217.00;;;;5083344;28;20204;-78
2023/07/13 00:05:44;;;;;;;5.65;1.38;;;;;23.60;101218.00;;;;5087705;28;20209;-79
2023/07/13 00:08:11;;;;;;;3.83;0.60;;;;;23.60;101209.00;;;;5084707;28;20702;-78
2023/07/13 00:10:42;;;;;;;1.90;0.75;;;;;23.50;101208.00;;;;5087853;28;20197;-78
2023/07/13 00:13:10;;;;;;;3.33;0.90;;;;;23.60;101220.00;;;;5087173;28;20255;-78
2023/07/13 00:15:38;;;;;;;3.25;0.90;;;;;23.50;101214.00;;;;5080538;28;20210;-78
2023/07/13 00:18:05;;;;;;;4.32;0.77;;;;;23.50;101217.00;;;;5086619;28;20217;-78
2023/07/13 00:20:34;;;;;;;1.67;0.52;;;;;23.50;101215.00;;;;5092439;28;20205;-78
2023/07/13 00:23:02;;;;;;;4.55;1.23;;;;;23.50;101219.00;;;;5097123;28;21072;-78
2023/07/13 00:25:29;;;;;;;2.55;0.88;;;;;23.50;101218.00;;;;5076848;28;20206;-78
2023/07/13 00:27:56;;;;;;;3.60;0.60;;;;;23.40;101215.00;;;;5070648;28;20576;-78
2023/07/13 00:30:25;;;;;;;3.85;0.80;;;;;23.40;101216.00;;;;5070197;28;20194;-78
2023/07/13 00:32:53;;;;;;;7.10;0.70;;;;;23.40;101217.00;;;;5067915;28;20603;-78
2023/07/13 00:35:20;;;;;;;2.38;0.77;;;;;23.40;101223.00;;;;5081524;28;20588;-78
2023/07/13 00:37:49;;;;;;;5.00;0.90;;;;;23.30;101212.00;;;;5087543;28;20201;-79
2023/07/13 00:40:17;;;;;;;3.00;0.90;;;;;23.30;101213.00;;;;5086522;28;20196;-78
2023/07/13 00:42:45;;;;;;;2.33;0.90;;;;;23.30;101212.00;;;;5088146;28;20206;-78
2023/07/13 00:45:45;;;;;;;1.60;0.70;;;;;23.10;101207.00;;;;5085343;28;20194;-78
2023/07/13 00:48:14;;;;;;;2.58;0.80;;;;;23.20;101218.00;;;;5081974;28;20589;-78
2023/07/13 00:50:42;;;;;;;2.22;0.80;;;;;23.20;101219.00;;;;5087548;28;20197;-78
2023/07/13 00:53:11;;;;;;;2.60;0.70;;;;;23.20;101219.00;;;;5076163;28;20571;-78
2023/07/13 00:55:39;;;;;;;4.32;0.82;;;;;23.10;101225.00;;;;5097892;28;20704;-78
2023/07/13 00:58:06;;;;;;;3.80;1.40;;;;;23.10;101222.00;;;;5069583;28;20199;-79
2023/07/13 01:00:37;;;;;;;4.28;1.08;;;;;23.10;101216.00;;;;5072960;28;20202;-79
2023/07/13 01:03:05;;;;;;;3.35;1.13;;;;;23.10;101220.00;;;;5072491;28;20208;-79
2023/07/13 01:05:35;;;;;;;1.70;0.60;;;;;23.00;101210.00;;;;5076671;28;20210;-79
2023/07/13 01:08:05;;;;;;;0.85;0.60;;;;;23.00;101213.00;;;;5073897;28;20579;-79
2023/07/13 01:10:38;;;;;;;2.13;0.75;;;;;23.00;101219.00;;;;5084425;28;20205;-79
2023/07/13 01:13:06;;;;;;;4.85;0.85;;;;;23.00;101221.00;;;;5086939;28;20202;-79
2023/07/13 01:15:39;;;;;;;4.63;0.80;;;;;22.90;101215.00;;;;5085773;28;20202;-79
2023/07/13 01:18:08;;;;;;;1.17;0.60;;;;;22.90;101231.00;;;;5069840;28;20586;-78
2023/07/13 01:20:36;;;;;;;3.33;0.90;;;;;22.90;101237.00;;;;5088797;28;20206;-79
2023/07/13 01:23:07;;;;;;;3.47;0.88;;;;;22.80;101233.00;;;;5087583;28;20286;-78
2023/07/13 01:25:36;;;;;;;2.88;0.90;;;;;22.80;101238.00;;;;5089989;28;20207;-79
2023/07/13 01:28:04;;;;;;;4.88;1.38;;;;;22.80;101235.00;;;;5089646;28;20706;-79
2023/07/13 01:30:31;;;;;;;3.50;0.75;;;;;22.80;101237.00;;;;5084963;28;20202;-78
2023/07/13 01:32:59;;;;;;;2.33;0.93;;;;;22.80;101236.00;;;;5088007;28;20186;-78
2023/07/13 01:35:28;;;;;;;2.67;1.20;;;;;22.80;101237.00;;;;5090057;28;20606;-78
2023/07/13 01:37:56;;;;;;;3.70;1.30;;;;;22.70;101238.00;;;;5089463;28;20546;-78
2023/07/13 01:40:25;;;;;;;4.25;0.90;;;;;22.70;101238.00;;;;5089320;28;20194;-78
2023/07/13 01:42:52;;;;;;;4.28;0.93;;;;;22.70;101236.00;;;;5087197;28;20679;-78
2023/07/13 01:45:20;;;;;;;2.42;0.85;;;;;22.70;101228.00;;;;5091831;28;20556;-78
2023/07/13 01:47:47;;;;;;;3.72;1.60;;;;;22.60;101228.00;;;;5091866;28;20233;-78
2023/07/13 01:50:14;;;;;;;4.75;0.90;;;;;22.60;101225.00;;;;5088468;28;20632;-78
2023/07/13 01:52:42;;;;;;;1.38;0.73;;;;;22.50;101231.00;;;;5089292;28;20195;-78
2023/07/13 01:55:09;;;;;;;1.92;0.82;;;;;22.50;101231.00;;;;5087994;28;20199;-78
2023/07/13 01:57:38;;;;;;;3.97;1.55;;;;;22.50;101236.00;;;;5089363;28;20202;-78
2023/07/13 02:00:08;;;;;;;3.10;1.05;;;;;22.40;101231.00;;;;5089348;28;20202;-78
2023/07/13 02:02:35;;;;;;;7.25;1.40;;;;;22.40;101229.00;;;;5089625;28;20198;-78
2023/07/13 02:05:02;;;;;;;2.80;0.90;;;;;22.40;101228.00;;;;5085471;28;20197;-78
2023/07/13 02:07:30;;;;;;;1.95;1.00;;;;;22.40;101236.00;;;;5072478;28;20195;-78
2023/07/13 02:09:58;;;;;;;3.80;1.02;;;;;22.30;101241.00;;;;5086430;28;20214;-78
2023/07/13 02:12:25;;;;;;;5.28;1.50;;;;;22.30;101236.00;;;;5074894;28;20206;-78
2023/07/13 02:14:54;;;;;;;3.35;0.90;;;;;22.30;101238.00;;;;5087476;28;20194;-78
2023/07/13 02:17:23;;;;;;;5.10;0.85;;;;;22.30;101246.00;;;;5088131;28;20229;-78
2023/07/13 02:19:50;;;;;;;3.22;1.00;;;;;22.30;101239.00;;;;5089311;28;20229;-78
2023/07/13 02:22:17;;;;;;;1.40;0.93;;;;;22.20;101236.00;;;;5089279;28;20201;-78
2023/07/13 02:24:44;;;;;;;2.08;0.82;;;;;22.20;101239.00;;;;5088480;28;20199;-79
2023/07/13 02:27:12;;;;;;;3.40;1.30;;;;;22.20;101242.00;;;;5089525;28;20202;-78
2023/07/13 02:29:39;;;;;;;4.85;1.35;;;;;22.20;101237.00;;;;5083916;28;20226;-77
2023/07/13 02:32:08;;;;;;;2.70;0.90;;;;;22.10;101240.00;;;;5087233;28;20198;-78
2023/07/13 02:34:36;;;;;;;3.55;1.13;;;;;22.10;101237.00;;;;5087934;28;20229;-78
2023/07/13 02:37:04;;;;;;;4.65;1.00;;;;;22.10;101247.00;;;;5097189;28;20643;-78
2023/07/13 02:39:32;;;;;;;4.13;1.33;;;;;22.10;101246.00;;;;5094266;28;20206;-78
2023/07/13 02:42:00;;;;;;;2.70;1.13;;;;;22.10;101241.00;;;;5084199;28;20235;-78
2023/07/13 02:44:27;;;;;;;2.55;1.00;;;;;22.10;101240.00;;;;5085236;28;20249;-78
2023/07/13 02:46:55;;;;;;;3.05;1.13;;;;;22.00;101231.00;;;;5086042;28;20206;-78
2023/07/13 02:49:23;;;;;;;5.63;1.58;;;;;22.00;101242.00;;;;5087850;28;20229;-78
2023/07/13 02:51:51;;;;;;;4.70;1.30;;;;;22.00;101238.00;;;;5087290;28;20194;-78
2023/07/13 02:54:19;;;;;;;4.47;1.60;;;;;22.00;101244.00;;;;5100402;28;20220;-78
2023/07/13 02:56:46;;;;;;;5.28;1.10;;;;;21.90;101239.00;;;;5110088;27;20197;-78
2023/07/13 02:59:14;;;;;;;6.00;1.40;;;;;21.90;101242.00;;;;5087759;28;20194;-78
2023/07/13 03:01:41;;;;;;;4.50;1.50;;;;;21.90;101245.00;;;;5082769;28;21127;-78
2023/07/13 03:04:08;;;;;;;5.68;0.95;;;;;21.90;101242.00;;;;5088965;28;20210;-78
2023/07/13 03:06:37;;;;;;;4.07;1.58;;;;;21.90;101245.00;;;;5089272;28;20535;-78
2023/07/13 03:09:04;;;;;;;2.92;1.20;;;;;21.90;101244.00;;;;5086908;28;20225;-78
2023/07/13 03:11:32;;;;;;;4.95;1.25;;;;;21.90;101248.00;;;;5102139;28;20202;-78
2023/07/13 03:13:59;;;;;;;3.90;1.10;;;;;21.90;101246.00;;;;5092631;28;20194;-78
2023/07/13 03:16:26;;;;;;;6.05;1.60;;;;;21.90;101252.00;;;;5084972;28;20213;-78
2023/07/13 03:18:53;;;;;;;4.18;1.15;;;;;21.90;101245.00;;;;5086348;28;20211;-78
2023/07/13 03:21:21;;;;;;;6.20;1.60;;;;;21.80;101257.00;;;;5088057;28;20206;-78
2023/07/13 03:23:50;;;;;;;3.33;1.33;;;;;21.80;101255.00;;;;5087695;28;20198;-78
2023/07/13 03:26:19;;;;;;;6.13;1.30;;;;;21.80;101259.00;;;;5087266;28;20198;-78
2023/07/13 03:28:47;;;;;;;2.03;1.02;;;;;21.80;101255.00;;;;5087545;28;20218;-78
2023/07/13 03:31:16;;;;;;;4.03;1.20;;;;;21.80;101255.00;;;;5086259;28;20717;-79
2023/07/13 03:33:44;;;;;;;7.05;1.40;;;;;21.80;101258.00;;;;5082461;28;20230;-79
2023/07/13 03:36:17;;;;;;;4.88;1.73;;;;;21.80;101269.00;;;;5087293;28;20664;-78
2023/07/13 03:38:46;;;;;;;5.63;1.30;;;;;21.80;101266.00;;;;5086229;28;20210;-78
2023/07/13 03:41:15;;;;;;;3.63;1.17;;;;;21.80;101263.00;;;;5086610;28;20198;-78
2023/07/13 03:43:42;;;;;;;5.85;1.40;;;;;21.80;101260.00;;;;5088174;28;20202;-78
2023/07/13 03:46:10;;;;;;;7.03;1.38;;;;;21.80;101259.00;;;;5085616;28;20220;-78
2023/07/13 03:48:39;;;;;;;3.92;1.25;;;;;21.80;101267.00;;;;5088429;28;20236;-78
2023/07/13 03:51:07;;;;;;;3.85;1.30;;;;;21.70;101269.00;;;;5088182;28;20196;-79
2023/07/13 03:53:34;;;;;;;4.78;1.30;;;;;21.70;101279.00;;;;5087471;28;20671;-78
2023/07/13 03:56:01;;;;;;;3.55;1.27;;;;;21.80;101281.00;;;;5085409;28;20191;-78
2023/07/13 03:58:33;;;;;;;6.28;1.95;;;;;21.70;101283.00;;;;5087283;28;20672;-78
2023/07/13 04:01:02;;;;;;;3.35;1.20;;;;;21.70;101288.00;;;;5087784;28;20694;-78
2023/07/13 04:03:32;;;;;;;3.55;1.55;;;;;21.70;101288.00;;;;5076248;28;20761;-78
2023/07/13 04:06:00;;;;;;;5.00;2.13;;;;;21.70;101288.00;;;;5071663;28;21069;-78
2023/07/13 04:08:28;;;;;;;3.95;1.42;;;;;21.70;101288.00;;;;5088192;28;20590;-78
2023/07/13 04:10:56;;;;;;;3.40;1.40;;;;;21.70;101287.00;;;;5088010;28;20209;-78
2023/07/13 04:13:24;;;;;;;7.22;1.58;;;;;21.70;101285.00;;;;5069463;28;20580;-79
2023/07/13 04:15:53;;;;;;;5.80;1.83;;;;;21.70;101293.00;;;;5080634;28;20657;-78
2023/07/13 04:18:21;;;;;;;4.10;1.48;;;;;21.70;101300.00;;;;5072352;28;20217;-79
2023/07/13 04:20:49;;;;;;;3.78;1.73;;;;;21.70;101298.00;;;;5088343;28;20630;-78
2023/07/13 04:23:17;;;;;;;3.72;1.58;;;;;21.70;101302.00;;;;5076422;28;20605;-79
2023/07/13 04:25:45;;;;;;;5.38;1.55;;;;;21.70;101306.00;;;;5086052;28;20198;-78
2023/07/13 04:28:12;;;;;;;3.67;1.77;;;;;21.80;101303.00;;;;5076333;28;20198;-78
2023/07/13 04:30:40;;;;;;;3.08;1.70;;;;;21.80;101309.00;;;;5081859;28;20553;-78
2023/07/13 04:33:09;;;;;;;5.03;1.70;;;;;21.80;101312.00;;;;5079081;28;20194;-78
2023/07/13 04:35:37;;;;;;;7.05;1.90;;;;;21.80;101306.00;;;;5085266;28;20261;-78
2023/07/13 04:38:04;;;;;;;5.25;1.42;;;;;21.80;101316.00;;;;5087337;28;20235;-78
2023/07/13 04:40:32;;;;;;;4.65;1.63;;;;;21.80;101306.00;;;;5087392;28;20803;-79
2023/07/13 04:42:59;;;;;;;7.28;1.50;;;;;21.80;101305.00;;;;5087856;28;20186;-78
2023/07/13 04:45:26;;;;;;;5.82;1.77;;;;;21.70;101320.00;;;;5082953;28;20216;-80
2023/07/13 04:47:54;;;;;;;4.63;1.95;;;;;21.70;101311.00;;;;5078947;28;20198;-79
2023/07/13 04:50:23;;;;;;;6.78;2.08;;;;;21.70;101312.00;;;;5077494;28;20214;-79
2023/07/13 04:52:50;;;;;;;8.30;2.33;;;;;21.70;101307.00;;;;5086784;28;20194;-79
2023/07/13 04:55:18;;;;;;;3.53;1.63;;;;;21.70;101310.00;;;;5089076;28;20206;-79
2023/07/13 04:57:46;;;;;;;5.30;1.58;;;;;21.80;101306.00;;;;5091064;28;20222;-79
2023/07/13 05:00:15;;;;;;;4.22;1.77;;;;;21.80;101311.00;;;;5088897;28;20222;-79
2023/07/13 05:02:45;;;;;;;6.82;1.73;;;;;21.80;101306.00;;;;5087592;28;20286;-79
2023/07/13 05:05:12;;;;;;;5.78;2.05;;;;;21.80;101306.00;;;;5082372;28;20227;-80
2023/07/13 05:07:41;;;;;;;5.72;2.08;;;;;21.80;101308.00;;;;5090861;28;20204;-80
2023/07/13 05:10:09;;;;;;;5.43;2.35;;;;;21.90;101318.00;;;;5091914;28;20244;-80
2023/07/13 05:12:37;;;;;;;6.47;2.08;;;;;21.90;101315.00;;;;5090747;28;20202;-80
2023/07/13 05:15:05;;;;;;;8.38;2.35;;;;;21.90;101318.00;;;;5090103;28;20566;-79
2023/07/13 05:17:33;;;;;;;9.02;2.60;;;;;22.00;101314.00;;;;5090737;28;20866;-80
2023/07/13 05:20:00;;;;;;;3.10;1.85;;;;;22.00;101328.00;;;;5085797;28;20229;-80
2023/07/13 05:22:27;;;;;;;4.57;2.20;;;;;22.00;101335.00;;;;5089526;28;20198;-81
2023/07/13 05:24:56;;;;;;;6.85;2.03;;;;;22.00;101330.00;;;;5088645;28;20210;-80
2023/07/13 05:27:24;;;;;;;4.78;1.85;;;;;22.10;101332.00;;;;5082187;28;20198;-79
2023/07/13 05:29:51;;;;;;;8.63;2.58;;;;;22.10;101331.00;;;;5089187;28;20672;-79
2023/07/13 05:32:20;;;;;;;5.72;2.47;;;;;22.10;101330.00;;;;5087626;28;20209;-78
2023/07/13 05:34:47;;;;;;;10.38;3.30;;;;;22.20;101333.00;;;;5090487;28;20221;-78
2023/07/13 05:37:14;;;;;;;6.32;2.67;;;;;22.20;101334.00;;;;5081600;28;20203;-78
2023/07/13 05:39:41;;;;;;;5.45;2.22;;;;;22.20;101328.00;;;;5071217;28;20207;-78
2023/07/13 05:42:10;;;;;;;11.00;3.20;;;;;22.30;101333.00;;;;5071986;28;20195;-79
2023/07/13 05:44:37;;;;;;;6.68;3.05;;;;;22.30;101338.00;;;;5087462;28;20202;-78
2023/07/13 05:47:05;;;;;;;5.93;2.80;;;;;22.40;101333.00;;;;5082583;28;20195;-79
2023/07/13 05:49:32;;;;;;;5.40;2.92;;;;;22.40;101348.00;;;;5094383;28;20232;-79
2023/07/13 05:52:00;;;;;;;10.68;2.50;;;;;22.40;101344.00;;;;5090799;28;20190;-79
2023/07/13 05:54:27;;;;;;;4.93;2.65;;;;;22.40;101357.00;;;;5090676;28;20211;-79
2023/07/13 05:56:55;;;;;;;7.72;2.97;;;;;22.50;101362.00;;;;5085573;28;20195;-79
2023/07/13 05:59:23;;;;;;;8.25;2.80;;;;;22.50;101359.00;;;;5086484;28;20206;-79
2023/07/13 06:01:52;;;;;;;6.70;3.10;;;;;22.60;101369.00;;;;5088745;28;20205;-79
2023/07/13 06:04:19;;;;;;;7.55;3.05;;;;;22.60;101374.00;;;;5079660;28;20207;-79
2023/07/13 06:06:47;;;;;;;5.47;3.17;;;;;22.60;101376.00;;;;5090958;28;20317;-79
2023/07/13 06:09:14;;;;;;;8.00;3.15;;;;;22.70;101374.00;;;;5090595;28;20614;-79
2023/07/13 06:11:41;;;;;;;10.32;3.38;;;;;22.70;101377.00;;;;5089872;28;20197;-79
2023/07/13 06:14:09;;;;;;;8.35;4.10;;;;;22.80;101373.00;;;;5090524;28;20256;-78
2023/07/13 06:16:37;;;;;;;6.93;3.67;;;;;22.80;101387.00;;;;5090164;28;20210;-79
2023/07/13 06:19:05;;;;;;;7.95;3.58;;;;;22.80;101387.00;;;;5090078;28;20913;-78
2023/07/13 06:21:32;;;;;;;19.17;4.55;;;;;22.80;101381.00;;;;5087631;28;20199;-78
2023/07/13 06:23:59;;;;;;;8.30;3.97;;;;;22.90;101389.00;;;;5090377;28;20953;-78
2023/07/13 06:26:27;;;;;;;8.52;4.20;;;;;22.90;101385.00;;;;5089555;28;20206;-78
2023/07/13 06:28:55;;;;;;;6.38;3.50;;;;;22.90;101384.00;;;;5089604;28;20202;-79
2023/07/13 06:31:22;;;;;;;9.50;4.35;;;;;23.00;101396.00;;;;5088621;28;20213;-78
2023/07/13 06:33:50;;;;;;;9.95;4.47;;;;;23.00;101394.00;;;;5088987;28;20234;-78
2023/07/13 06:36:18;;;;;;;13.13;4.63;;;;;23.10;101389.00;;;;5079187;28;20206;-79
2023/07/13 06:38:45;;;;;;;10.13;4.15;;;;;23.10;101397.00;;;;5069125;28;20214;-78
2023/07/13 06:41:12;;;;;;;7.95;4.85;;;;;23.10;101401.00;;;;5069371;28;20206;-79
2023/07/13 06:43:39;;;;;;;9.13;4.82;;;;;23.20;101401.00;;;;5069907;28;20214;-78
2023/07/13 06:46:07;;;;;;;9.48;5.05;;;;;23.20;101405.00;;;;5069429;28;20199;-78
2023/07/13 06:48:35;;;;;;;9.90;4.88;;;;;23.30;101399.00;;;;5083147;28;20656;-79
2023/07/13 06:51:04;;;;;;;8.65;4.57;;;;;23.30;101402.00;;;;5089830;28;20226;-78
2023/07/13 06:53:32;;;;;;;10.20;5.13;;;;;23.40;101399.00;;;;5088214;28;20210;-78
2023/07/13 06:55:59;;;;;;;10.90;4.38;;;;;23.40;101402.00;;;;5086737;28;20202;-79
2023/07/13 06:58:27;;;;;;;7.93;4.95;;;;;23.40;101411.00;;;;5088163;28;20202;-80
2023/07/13 07:00:54;;;;;;;8.43;3.95;;;;;23.50;101417.00;;;;5086470;28;20648;-78
2023/07/13 07:03:22;;;;;;;10.00;4.25;;;;;23.50;101408.00;;;;5084576;28;20201;-78
2023/07/13 07:05:49;;;;;;;9.77;4.88;;;;;23.60;101411.00;;;;5087110;28;20213;-79
2023/07/13 07:08:18;;;;;;;8.85;4.55;;;;;23.60;101421.00;;;;5089825;28;20208;-78
2023/07/13 07:10:45;;;;;;;7.78;4.45;;;;;23.70;101424.00;;;;5101940;28;20218;-79
2023/07/13 07:13:12;;;;;;;10.02;4.80;;;;;23.70;101426.00;;;;5087924;28;20194;-79
2023/07/13 07:15:39;;;;;;;8.02;4.30;;;;;23.80;101427.00;;;;5088976;28;20963;-79
2023/07/13 07:18:07;;;;;;;6.55;4.43;;;;;23.80;101429.00;;;;5087575;28;20195;-79
2023/07/13 07:20:34;;;;;;;8.48;4.50;;;;;23.90;101432.00;;;;5088848;28;20209;-78
2023/07/13 07:23:01;;;;;;;8.57;5.03;;;;;23.90;101436.00;;;;5086439;28;20187;-79
2023/07/13 07:25:31;;;;;;;10.30;5.18;;;;;23.90;101432.00;;;;5092949;28;20213;-78
2023/07/13 07:27:59;;;;;;;6.63;4.35;;;;;24.00;101432.00;;;;5108894;28;20289;-79
2023/07/13 07:30:26;;;;;;;9.75;4.95;;;;;24.00;101439.00;;;;5101975;28;20234;-80
2023/07/13 07:32:54;;;;;;;10.57;4.47;;;;;24.00;101433.00;;;;5088275;28;20198;-78
2023/07/13 07:35:21;;;;;;;8.75;4.82;;;;;24.10;101432.00;;;;5087688;28;20222;-78
2023/07/13 07:37:48;;;;;;;12.57;5.35;;;;;24.10;101433.00;;;;5086380;28;20205;-79
2023/07/13 07:40:16;;;;;;;9.30;4.55;;;;;24.10;101433.00;;;;5086666;28;20206;-80
2023/07/13 07:42:44;;;;;;;16.40;6.05;;;;;24.20;101423.00;;;;5089442;28;20217;-79
2023/07/13 07:45:12;;;;;;;10.15;4.68;;;;;24.20;101428.00;;;;5088406;28;20963;-79
2023/07/13 07:47:39;;;;;;;8.98;4.53;;;;;24.20;101420.00;;;;5076342;28;20198;-79
2023/07/13 07:50:07;;;;;;;5.55;4.35;;;;;24.20;101422.00;;;;5083011;28;20229;-79
2023/07/13 07:52:35;;;;;;;8.13;4.65;;;;;24.30;101433.00;;;;5088667;28;20198;-79
2023/07/13 07:55:02;;;;;;;8.57;4.90;;;;;24.30;101432.00;;;;5075243;28;20585;-78
2023/07/13 07:57:29;;;;;;;6.95;4.88;;;;;24.40;101428.00;;;;5084098;28;20202;-78
2023/07/13 07:59:58;;;;;;;10.05;4.63;;;;;24.40;101430.00;;;;5088521;28;20214;-78
2023/07/13 08:02:26;;;;;;;6.55;4.90;;;;;24.60;101422.00;;;;5086721;28;20210;-78
2023/07/13 08:04:53;;;;;;;11.38;5.15;;;;;24.60;101423.00;;;;5087486;28;20191;-78
2023/07/13 08:07:21;;;;;;;7.03;4.10;;;;;24.70;101427.00;;;;5085924;28;20191;-81
2023/07/13 08:09:52;;;;;;;7.03;4.28;;;;;24.80;101419.00;;;;5085789;28;20664;-78
2023/07/13 08:12:19;;;;;;;4.57;4.10;;;;;24.90;101428.00;;;;5087154;28;20290;-79
2023/07/13 08:14:46;;;;;;;8.60;4.03;;;;;25.00;101423.00;;;;5085253;28;20202;-79
2023/07/13 08:17:15;;;;;;;9.38;4.32;;;;;25.00;101426.00;;;;5081700;28;20198;-78
2023/07/13 08:19:42;;;;;;;4.68;3.70;;;;;25.10;101421.00;;;;5080311;28;20225;-79
2023/07/13 08:22:10;;;;;;;8.20;3.97;;;;;25.10;101422.00;;;;5082415;28;20982;-79
2023/07/13 08:24:38;;;;;;;4.22;3.15;;;;;25.20;101426.00;;;;5086631;28;20198;-80
2023/07/13 08:27:06;;;;;;;6.47;3.58;;;;;25.20;101430.00;;;;5088085;28;20214;-78
2023/07/13 08:29:33;;;;;;;6.40;3.10;;;;;25.20;101439.00;;;;5091142;28;21030;-80
2023/07/13 08:32:00;;;;;;;4.43;2.60;;;;;25.20;101445.00;;;;5089450;28;20191;-80
2023/07/13 08:34:29;;;;;;;3.33;2.10;;;;;25.20;101446.00;;;;5092282;28;20226;-79
2023/07/13 08:36:56;;;;;;;3.30;1.70;;;;;25.20;101441.00;;;;5089888;28;20205;-79
2023/07/13 08:39:23;;;;;;;7.38;2.38;;;;;25.20;101444.00;;;;5091157;28;20198;-79
2023/07/13 08:41:59;;;;;;;4.72;2.30;;;;;25.20;101446.00;;;;5091894;28;20190;-79
2023/07/13 08:44:37;;;;;;;6.65;1.77;;;;;25.20;101448.00;;;;5090426;28;20197;-79
2023/07/13 08:47:05;;;;;;;5.50;2.50;;;;;25.20;101453.00;;;;5090693;28;20190;-78
2023/07/13 08:49:35;;;;;;;5.63;1.83;;;;;25.20;101447.00;;;;5090808;28;20780;-80
2023/07/13 08:52:06;;;;;;;3.85;1.80;;;;;25.20;101457.00;;;;5089414;28;20213;-79
2023/07/13 08:54:42;;;;;;;4.28;1.75;;;;;25.20;101451.00;;;;5091392;28;20209;-78
2023/07/13 08:57:14;;;;;;;5.35;2.15;;;;;25.20;101462.00;;;;5089952;28;20528;-78
2023/07/13 08:59:42;;;;;;;2.72;1.40;;;;;25.20;101461.00;;;;5091464;28;20205;-79
2023/07/13 09:02:21;;;;;;;2.13;1.92;;;;;25.10;101468.00;;;;5088908;28;20216;-80
2023/07/13 09:04:55;;;;;;;3.08;1.75;;;;;25.20;101463.00;;;;5081997;28;20194;-79
2023/07/13 09:07:41;;;;;;;6.47;2.33;;;;;25.10;101468.00;;;;5094818;28;20297;-79
2023/07/13 09:10:15;;;;;;;4.35;1.83;;;;;25.20;101460.00;;;;5104168;28;20225;-79
2023/07/13 09:12:53;;;;;;;6.55;2.08;;;;;25.30;101461.00;;;;5087992;28;20190;-79
2023/07/13 09:15:29;;;;;;;6.18;2.40;;;;;25.40;101449.00;;;;5088885;28;20194;-80
2023/07/13 09:18:01;;;;;;;4.63;2.00;;;;;25.60;101449.00;;;;5090821;28;20673;-79
2023/07/13 09:20:35;;;;;;;3.63;2.08;;;;;25.70;101450.00;;;;5090539;28;20264;-80
2023/07/13 09:23:07;;;;;;;4.47;1.98;;;;;25.80;101462.00;;;;5089978;28;20201;-78
2023/07/13 09:25:36;;;;;;;5.50;2.13;;;;;25.80;101451.00;;;;5104440;28;20197;-79
2023/07/13 09:28:12;;;;;;;3.58;1.85;;;;;25.90;101463.00;;;;5112103;28;20194;-79
2023/07/13 09:30:51;;;;;;;2.67;1.77;;;;;26.00;101457.00;;;;5099136;27;20222;-79
2023/07/13 09:33:18;;;;;;;4.70;1.90;;;;;26.20;101443.00;;;;5089875;28;20295;-78
2023/07/13 09:35:47;;;;;;;4.13;1.90;;;;;26.20;101454.00;;;;5090592;28;20695;-79
2023/07/13 09:38:17;;;;;;;3.15;1.80;;;;;26.30;101451.00;;;;5087691;28;20214;-80
2023/07/13 09:40:54;;;;;;;3.08;1.70;;;;;26.30;101459.00;;;;5081190;28;20222;-80
2023/07/13 09:43:22;;;;;;;3.60;1.50;;;;;26.40;101458.00;;;;5108987;28;20197;-81
2023/07/13 09:45:49;;;;;;;6.03;1.95;;;;;26.40;101468.00;;;;5090835;28;20201;-79
2023/07/13 09:48:18;;;;;;;2.88;1.27;;;;;26.40;101461.00;;;;5089292;28;20194;-79
2023/07/13 09:50:47;;;;;;;2.92;1.40;;;;;26.40;101464.00;;;;5090276;28;20592;-79
2023/07/13 09:53:17;;;;;;;2.97;1.50;;;;;26.40;101457.00;;;;5088185;28;20202;-81
2023/07/13 09:55:46;;;;;;;2.97;1.55;;;;;26.50;101459.00;;;;5090452;28;20213;-78
2023/07/13 09:58:19;;;;;;;3.33;1.25;;;;;26.50;101454.00;;;;5092356;28;20204;-80
2023/07/13 10:00:58;;;;;;;2.28;1.13;;;;;26.50;101465.00;;;;5089783;28;20238;-79
2023/07/13 10:03:27;;;;;;;2.15;0.93;;;;;26.60;101469.00;;;;5090524;28;20217;-80
2023/07/13 10:06:01;;;;;;;4.10;1.48;;;;;26.60;101469.00;;;;5083039;28;20197;-81
2023/07/13 10:08:32;;;;;;;4.63;1.02;;;;;26.60;101475.00;;;;5070223;28;20209;-79
2023/07/13 10:11:01;;;;;;;2.38;1.23;;;;;26.60;101474.00;;;;5069557;28;20661;-80
2023/07/13 10:13:34;;;;;;;1.92;1.33;;;;;26.60;101478.00;;;;5085040;28;20197;-80
2023/07/13 10:16:01;;;;;;;1.05;0.90;;;;;26.60;101480.00;;;;5090527;28;20206;-80
2023/07/13 10:18:32;;;;;;;1.70;1.10;;;;;26.60;101487.00;;;;5087195;28;20214;-81
2023/07/13 10:21:14;;;;;;;2.78;1.35;;;;;26.50;101486.00;;;;5085917;28;20194;-80
2023/07/13 10:23:43;;;;;;;2.92;1.30;;;;;26.70;101472.00;;;;5087168;28;20194;-80
2023/07/13 10:26:16;;;;;;;1.48;1.17;;;;;26.80;101487.00;;;;5085608;28;20194;-80
2023/07/13 10:28:47;;;;;;;2.63;1.38;;;;;26.90;101479.00;;;;5088808;28;20209;-79
2023/07/13 10:31:17;;;;;;;2.55;1.17;;;;;27.00;101487.00;;;;5086783;28;20222;-79
2023/07/13 10:33:44;;;;;;;1.85;1.02;;;;;27.10;101487.00;;;;5087490;28;20222;-79
2023/07/13 10:36:24;;;;;;;1.88;1.27;;;;;27.00;101494.00;;;;5089462;28;20266;-80
2023/07/13 10:38:53;;;;;;;3.33;1.33;;;;;27.10;101496.00;;;;5080530;28;20198;-79
2023/07/13 10:41:24;;;;;;;1.77;1.10;;;;;27.10;101492.00;;;;5081701;28;20203;-79
2023/07/13 10:43:55;;;;;;;1.77;0.82;;;;;27.10;101494.00;;;;5084801;28;20937;-81
2023/07/13 10:46:26;;;;;;;3.85;1.30;;;;;27.20;101509.00;;;;5089827;28;20252;-80
2023/07/13 10:48:58;;;;;;;2.72;1.17;;;;;27.30;101505.00;;;;5090033;28;20562;-80
2023/07/13 10:51:28;;;;;;;2.45;1.42;;;;;27.30;101524.00;;;;5101520;28;20982;-80
2023/07/13 10:54:18;;;;;;;3.10;1.30;;;;;27.30;101505.00;;;;5089996;28;20206;-79
2023/07/13 10:56:47;;;;;;;3.15;1.80;;;;;27.40;101500.00;;;;5086978;28;20202;-81
2023/07/13 10:59:18;;;;;;;4.07;1.58;;;;;27.50;101502.00;;;;5086644;28;20210;-81
2023/07/13 11:01:55;;;;;;;2.95;1.45;;;;;27.50;101491.00;;;;5088141;28;20679;-81
2023/07/13 11:04:25;;;;;;;3.45;1.70;;;;;27.60;101505.00;;;;5089102;28;20193;-79
2023/07/13 11:06:57;;;;;;;3.55;1.77;;;;;27.70;101507.00;;;;5089523;28;20209;-82
2023/07/13 11:09:38;;;;;;;4.03;1.50;;;;;27.70;101510.00;;;;5089067;28;20202;-79
2023/07/13 11:12:27;;;;;;;2.88;1.30;;;;;27.80;101513.00;;;;5087000;28;20317;-81
2023/07/13 11:15:06;;;;;;;3.00;1.50;;;;;27.80;101498.00;;;;5088995;28;20239;-80
2023/07/13 11:17:50;;;;;;;3.03;1.40;;;;;27.80;101522.00;;;;5088234;28;20224;-80
2023/07/13 11:20:40;;;;;;;3.42;1.35;;;;;27.80;101514.00;;;;5088451;28;20229;-80
2023/07/13 11:23:30;;;;;;;3.05;1.60;;;;;27.80;101519.00;;;;5087608;28;20671;-80
2023/07/13 11:25:59;;;;;;;1.67;1.00;;;;;28.00;101509.00;;;;5096681;28;20202;-80
2023/07/13 11:28:31;;;;;;;5.72;1.33;;;;;28.00;101514.00;;;;5086619;28;20194;-80
2023/07/13 11:31:15;;;;;;;4.60;1.75;;;;;27.90;101509.00;;;;5088242;28;20226;-84
2023/07/13 11:33:58;;;;;;;2.67;1.55;;;;;27.90;101521.00;;;;5088899;28;20226;-81
2023/07/13 11:36:31;;;;;;;3.53;1.40;;;;;27.90;101513.00;;;;5086688;28;20202;-81
2023/07/13 11:39:05;;;;;;;2.60;1.35;;;;;27.90;101506.00;;;;5087910;28;20202;-80
2023/07/13 11:41:38;;;;;;;2.83;1.33;;;;;27.90;101523.00;;;;5084444;28;20199;-78
2023/07/13 11:44:18;;;;;;;2.95;1.58;;;;;27.80;101521.00;;;;5088468;28;20232;-83
2023/07/13 11:46:51;;;;;;;2.00;1.73;;;;;27.90;101516.00;;;;5087710;28;20205;-79
2023/07/13 11:49:19;;;;;;;3.78;1.50;;;;;28.00;101511.00;;;;5086217;28;20671;-80
2023/07/13 11:51:50;;;;;;;2.42;1.70;;;;;28.00;101511.00;;;;5088089;28;20221;-79
2023/07/13 11:54:27;;;;;;;3.03;1.45;;;;;28.00;101512.00;;;;5085944;28;20611;-82
2023/07/13 11:56:57;;;;;;;3.17;1.73;;;;;28.20;101521.00;;;;5088477;28;20198;-80
2023/07/13 11:59:24;;;;;;;3.03;1.42;;;;;28.20;101518.00;;;;5084453;28;20212;-80
2023/07/13 12:01:54;;;;;;;2.33;1.50;;;;;28.20;101519.00;;;;5087970;28;20202;-80
2023/07/13 12:04:25;;;;;;;1.73;1.33;;;;;28.30;101520.00;;;;5081829;28;20205;-81
2023/07/13 12:07:04;;;;;;;1.70;1.35;;;;;28.30;101541.00;;;;5068273;28;20210;-80
2023/07/13 12:09:36;;;;;;;2.58;1.40;;;;;28.20;101531.00;;;;5069323;28;20641;-80
2023/07/13 12:12:05;;;;;;;2.67;1.50;;;;;28.30;101524.00;;;;5079365;28;20226;-80
2023/07/13 12:14:35;;;;;;;6.63;1.65;;;;;28.30;101530.00;;;;5088569;28;20233;-80
2023/07/13 12:17:08;;;;;;;2.80;1.67;;;;;28.30;101518.00;;;;5077080;28;20194;-80
2023/07/13 12:19:36;;;;;;;2.95;1.60;;;;;28.30;101523.00;;;;5067744;28;20222;-80